createdAt,value
2014-06-16T00:00:07.268Z,42.6
2014-06-16T00:01:12.255Z,42.38
2014-06-16T00:02:16.945Z,42.64
2014-06-16T00:03:21.932Z,42.54
2014-06-16T00:04:26.606Z,43.16
2014-06-16T00:05:31.592Z,43.68
2014-06-16T00:06:36.578Z,43.42
2014-06-16T00:07:41.252Z,43.35
2014-06-16T00:08:45.942Z,43.6
2014-06-16T00:09:50.630Z,43.13
2014-06-16T00:10:55.304Z,43.47
2014-06-16T00:12:00.307Z,43.24
2014-06-16T00:13:05.278Z,43.59
2014-06-16T00:14:10.264Z,43.17
2014-06-16T00:15:14.939Z,43.56
2014-06-16T00:16:19.629Z,43.54
2014-06-16T00:17:24.616Z,43.92
2014-06-16T00:18:29.289Z,44.42
2014-06-16T00:19:33.978Z,44.27
2014-06-16T00:20:38.668Z,43.39
2014-06-16T00:21:43.639Z,43.57
2014-06-16T00:22:48.624Z,43.11
2014-06-16T00:23:53.611Z,43.05
2014-06-16T00:24:58.598Z,43.73
2014-06-16T00:26:03.583Z,43.46
2014-06-16T00:27:08.273Z,44.05
2014-06-16T00:28:13.246Z,43.68
2014-06-16T00:29:18.530Z,43.42
2014-06-16T00:30:23.219Z,43.35
2014-06-16T00:31:28.204Z,43.19
2014-06-16T00:32:33.488Z,43.94
2014-06-16T00:33:38.162Z,44.28
2014-06-16T00:34:42.851Z,43.49
2014-06-16T00:35:47.541Z,43.84
2014-06-16T00:36:52.214Z,43.38
2014-06-16T00:37:56.903Z,43.46
2014-06-16T00:39:01.577Z,43.28
2014-06-16T00:40:06.564Z,44.25
2014-06-16T00:41:11.254Z,44.11
2014-06-16T00:42:16.224Z,44.33
2014-06-16T00:43:20.914Z,44.23
2014-06-16T00:44:25.588Z,43.61
2014-06-16T00:45:30.278Z,43.32
2014-06-16T00:46:35.249Z,43.81
2014-06-16T00:47:40.234Z,44.6
2014-06-16T00:48:44.924Z,44.09
2014-06-16T00:49:49.911Z,43.65
2014-06-16T00:50:54.882Z,44.04
2014-06-16T00:51:59.572Z,43.41
2014-06-16T00:53:04.557Z,43.71
2014-06-16T00:54:09.247Z,43.77
2014-06-16T00:55:14.236Z,45.02
2014-06-16T00:56:18.924Z,44.12
2014-06-16T00:57:23.911Z,44.79
2014-06-16T00:58:28.616Z,44.95
2014-06-16T00:59:33.289Z,44.93
2014-06-16T01:00:38.276Z,44.21
2014-06-16T01:01:42.966Z,44.8
2014-06-16T01:02:47.935Z,44.28
2014-06-16T01:03:52.625Z,44.1
2014-06-16T01:04:57.299Z,44.21
2014-06-16T01:06:01.989Z,45.25
2014-06-16T01:07:06.662Z,45.26
2014-06-16T01:08:11.648Z,45.54
2014-06-16T01:09:16.637Z,46.4
2014-06-16T01:10:21.311Z,46.11
2014-06-16T01:11:26.016Z,45.8
2014-06-16T01:12:30.690Z,45.86
2014-06-16T01:13:34.692Z,45.92
2014-06-16T01:14:39.678Z,45.1
2014-06-16T01:15:44.383Z,45.45
2014-06-16T01:16:49.056Z,45.48
2014-06-16T01:17:53.747Z,45.6
2014-06-16T01:18:58.733Z,45.81
2014-06-16T01:20:03.718Z,45.71
2014-06-16T01:21:08.408Z,45.6
2014-06-16T01:22:13.082Z,45.25
2014-06-16T01:23:17.773Z,45.16
2014-06-16T01:24:22.760Z,45.02
2014-06-16T01:25:27.449Z,45.34
2014-06-16T01:26:32.139Z,45.33
2014-06-16T01:27:37.109Z,45.44
2014-06-16T01:28:42.096Z,45.48
2014-06-16T01:29:47.065Z,45.13
2014-06-16T01:30:51.068Z,45.14
2014-06-16T01:31:55.758Z,45.27
2014-06-16T01:33:00.446Z,45.22
2014-06-16T01:34:05.120Z,45.49
2014-06-16T01:35:09.810Z,45.45
2014-06-16T01:36:14.486Z,45.81
2014-06-16T01:37:19.472Z,45.69
2014-06-16T01:38:24.162Z,46.37
2014-06-16T01:39:28.835Z,46.56
2014-06-16T01:40:33.822Z,46.1
2014-06-16T01:41:38.808Z,46.86
2014-06-16T01:42:43.481Z,46.86
2014-06-16T01:43:48.171Z,46.91
2014-06-16T01:44:52.861Z,46.27
2014-06-16T01:45:57.535Z,46.34
2014-06-16T01:47:02.223Z,47.73
2014-06-16T01:48:06.897Z,47.08
2014-06-16T01:49:11.587Z,46.59
2014-06-16T01:50:16.575Z,46.15
2014-06-16T01:51:21.858Z,46.54
2014-06-16T01:52:26.844Z,46.48
2014-06-16T01:53:32.127Z,46.96
2014-06-16T01:54:36.802Z,46.69
2014-06-16T01:55:42.084Z,46.8
2014-06-16T01:56:47.071Z,46.72
2014-06-16T01:57:52.057Z,47.67
2014-06-16T01:58:57.325Z,47.25
2014-06-16T02:00:02.014Z,47.96
2014-06-16T02:01:06.703Z,47.38
2014-06-16T02:02:11.393Z,46.55
2014-06-16T02:03:16.069Z,46.82
2014-06-16T02:04:20.758Z,47.44
2014-06-16T02:05:25.432Z,47.36
2014-06-16T02:06:30.418Z,47.09
2014-06-16T02:07:35.108Z,47.06
2014-06-16T02:08:39.782Z,48.67
2014-06-16T02:09:44.471Z,49.34
2014-06-16T02:10:49.441Z,48.43
2014-06-16T02:11:54.131Z,48.03
2014-06-16T02:12:58.820Z,47.62
2014-06-16T02:14:03.494Z,47.76
2014-06-16T02:15:08.184Z,47.24
2014-06-16T02:16:12.858Z,47.5
2014-06-16T02:17:17.548Z,47.44
2014-06-16T02:18:22.535Z,48
2014-06-16T02:19:27.505Z,47.1
2014-06-16T02:20:32.493Z,46.76
2014-06-16T02:21:37.165Z,47.26
2014-06-16T02:22:41.855Z,47.6
2014-06-16T02:23:46.544Z,46.95
2014-06-16T02:24:51.234Z,47.78
2014-06-16T02:25:55.923Z,47.68
2014-06-16T02:27:00.613Z,47.97
2014-06-16T02:28:05.302Z,47.66
2014-06-16T02:29:09.976Z,47.62
2014-06-16T02:30:14.666Z,47.85
2014-06-16T02:31:19.654Z,48.88
2014-06-16T02:32:24.328Z,48.7
2014-06-16T02:33:29.018Z,49.32
2014-06-16T02:34:33.706Z,48.68
2014-06-16T02:35:38.380Z,47.59
2014-06-16T02:36:43.367Z,47.47
2014-06-16T02:37:48.056Z,47.38
2014-06-16T02:38:53.028Z,46.74
2014-06-16T02:39:57.717Z,46.87
2014-06-16T02:41:02.391Z,46.94
2014-06-16T02:42:07.081Z,47.1
2014-06-16T02:43:12.051Z,47.28
2014-06-16T02:44:16.741Z,46.9
2014-06-16T02:45:21.727Z,46.62
2014-06-16T02:46:26.713Z,47.16
2014-06-16T02:47:31.387Z,46.84
2014-06-16T02:48:36.077Z,46.8
2014-06-16T02:49:41.048Z,47
2014-06-16T02:50:45.737Z,47.53
2014-06-16T02:51:50.708Z,47.33
2014-06-16T02:52:55.694Z,47.32
2014-06-16T02:54:00.383Z,48.4
2014-06-16T02:55:05.073Z,47.68
2014-06-16T02:56:09.763Z,47.3
2014-06-16T02:57:14.748Z,47.45
2014-06-16T02:58:19.736Z,47.31
2014-06-16T02:59:24.410Z,46.85
2014-06-16T03:00:29.100Z,46.94
2014-06-16T03:01:33.789Z,47.11
2014-06-16T03:02:38.479Z,47.09
2014-06-16T03:03:43.153Z,46.84
2014-06-16T03:04:47.841Z,46.72
2014-06-16T03:05:52.828Z,46.91
2014-06-16T03:06:57.798Z,47.27
2014-06-16T03:08:02.489Z,47.47
2014-06-16T03:09:07.162Z,47.17
2014-06-16T03:10:12.148Z,48.78
2014-06-16T03:11:17.136Z,47.63
2014-06-16T03:12:21.826Z,47.28
2014-06-16T03:13:26.500Z,47.16
2014-06-16T03:14:31.486Z,47.35
2014-06-16T03:15:36.160Z,47.83
2014-06-16T03:16:40.850Z,47.9
2014-06-16T03:17:45.538Z,48.58
2014-06-16T03:18:50.509Z,47.94
2014-06-16T03:19:55.198Z,48.42
2014-06-16T03:21:00.467Z,49.05
2014-06-16T03:22:05.171Z,49.2
2014-06-16T03:23:09.845Z,49.3
2014-06-16T03:24:14.535Z,48.78
2014-06-16T03:25:19.210Z,48.92
2014-06-16T03:26:23.212Z,48.94
2014-06-16T03:27:27.902Z,49.12
2014-06-16T03:28:32.592Z,48.8
2014-06-16T03:29:37.266Z,48.92
2014-06-16T03:30:41.955Z,48.6
2014-06-16T03:31:46.645Z,48.63
2014-06-16T03:32:51.318Z,48.26
2014-06-16T03:33:56.304Z,48.86
2014-06-16T03:35:00.994Z,49.32
2014-06-16T03:36:05.981Z,49.97
2014-06-16T03:37:10.655Z,49.8
2014-06-16T03:38:15.345Z,49.77
2014-06-16T03:39:20.315Z,49.94
2014-06-16T03:40:25.005Z,50.11
2014-06-16T03:41:29.694Z,49.65
2014-06-16T03:42:34.665Z,49.82
2014-06-16T03:43:39.652Z,50.97
2014-06-16T03:44:44.325Z,50.93
2014-06-16T03:45:49.031Z,49.21
2014-06-16T03:46:53.704Z,49.38
2014-06-16T03:47:58.393Z,49.65
2014-06-16T03:49:03.067Z,50.24
2014-06-16T03:50:07.757Z,49.87
2014-06-16T03:51:12.430Z,49.54
2014-06-16T03:52:17.122Z,49.04
2014-06-16T03:53:21.796Z,50.08
2014-06-16T03:54:26.485Z,50.01
2014-06-16T03:55:31.175Z,50.48
2014-06-16T03:56:35.848Z,50.34
2014-06-16T03:57:41.131Z,50.31
2014-06-16T03:58:45.134Z,50.01
2014-06-16T03:59:49.822Z,49.88
2014-06-16T04:00:54.793Z,49.71
2014-06-16T04:01:59.483Z,49.87
2014-06-16T04:03:04.469Z,49.55
2014-06-16T04:04:09.158Z,49.65
2014-06-16T04:05:13.832Z,49.4
2014-06-16T04:06:18.820Z,49.72
2014-06-16T04:07:23.791Z,50.08
2014-06-16T04:08:28.481Z,49.88
2014-06-16T04:09:33.451Z,49.73
2014-06-16T04:10:38.438Z,50.18
2014-06-16T04:11:43.112Z,50.28
2014-06-16T04:12:48.098Z,49.97
2014-06-16T04:13:53.085Z,49.5
2014-06-16T04:14:57.758Z,50.37
2014-06-16T04:16:02.448Z,51
2014-06-16T04:17:07.122Z,50.52
2014-06-16T04:18:12.405Z,50.63
2014-06-16T04:19:17.080Z,49.88
2014-06-16T04:20:21.768Z,50.37
2014-06-16T04:21:26.442Z,50.24
2014-06-16T04:22:31.132Z,51.09
2014-06-16T04:23:35.821Z,50.87
2014-06-16T04:24:40.495Z,50.08
2014-06-16T04:25:45.483Z,50.2
2014-06-16T04:26:50.171Z,50.18
2014-06-16T04:27:54.861Z,50.65
2014-06-16T04:28:59.534Z,50.52
2014-06-16T04:30:04.224Z,50.44
2014-06-16T04:31:09.210Z,50.16
2014-06-16T04:32:14.181Z,50.37
2014-06-16T04:33:19.169Z,50.88
2014-06-16T04:34:23.859Z,50.67
2014-06-16T04:35:28.532Z,50.86
2014-06-16T04:36:33.221Z,50.33
2014-06-16T04:37:37.895Z,50.67
2014-06-16T04:38:42.586Z,50.48
2014-06-16T04:39:47.555Z,49.64
2014-06-16T04:40:52.245Z,50.59
2014-06-16T04:41:56.919Z,49.47
2014-06-16T04:43:01.905Z,49.1
2014-06-16T04:44:06.892Z,48.36
2014-06-16T04:45:11.862Z,49.02
2014-06-16T04:46:16.552Z,49.11
2014-06-16T04:47:21.524Z,49.2
2014-06-16T04:48:26.230Z,48.54
2014-06-16T04:49:30.904Z,48.1
2014-06-16T04:50:35.889Z,48.25
2014-06-16T04:51:40.564Z,47.93
2014-06-16T04:52:45.253Z,47.57
2014-06-16T04:53:50.239Z,47.15
2014-06-16T04:54:55.209Z,47
2014-06-16T04:55:59.899Z,47.21
2014-06-16T04:57:04.588Z,46.95
2014-06-16T04:58:09.278Z,47.12
2014-06-16T04:59:14.249Z,47.03
2014-06-16T05:00:18.940Z,47.26
2014-06-16T05:01:23.926Z,46.86
2014-06-16T05:02:28.615Z,46.66
2014-06-16T05:03:33.306Z,46.96
2014-06-16T05:04:37.979Z,46.59
2014-06-16T05:05:42.668Z,47.21
2014-06-16T05:06:47.640Z,46.52
2014-06-16T05:07:51.641Z,46.05
2014-06-16T05:08:56.330Z,46.67
2014-06-16T05:10:01.004Z,46.69
2014-06-16T05:11:05.693Z,46.5
2014-06-16T05:12:10.976Z,46.35
2014-06-16T05:13:15.948Z,46.54
2014-06-16T05:14:20.638Z,46.74
2014-06-16T05:15:25.312Z,46.38
2014-06-16T05:16:30.001Z,45.83
2014-06-16T05:17:34.675Z,45.76
2014-06-16T05:18:39.663Z,45.12
2014-06-16T05:19:44.351Z,44.76
2014-06-16T05:20:49.025Z,45.01
2014-06-16T05:21:54.011Z,44.86
2014-06-16T05:22:58.013Z,44.51
2014-06-16T05:24:02.984Z,45.09
2014-06-16T05:25:07.971Z,44.53
2014-06-16T05:26:12.957Z,43.8
2014-06-16T05:27:18.241Z,43.63
2014-06-16T05:28:22.931Z,43.37
2014-06-16T05:29:27.620Z,43.11
2014-06-16T05:30:32.311Z,43.31
2014-06-16T05:31:37.000Z,43.12
2014-06-16T05:32:41.674Z,42.87
2014-06-16T05:33:46.363Z,42.71
2014-06-16T05:34:51.349Z,42.23
2014-06-16T05:35:56.054Z,42.62
2014-06-16T05:37:00.728Z,42.89
2014-06-16T05:38:05.417Z,43.02
2014-06-16T05:39:10.107Z,42.64
2014-06-16T05:40:14.813Z,42.69
2014-06-16T05:41:19.879Z,42.82
2014-06-16T05:42:24.608Z,42.1
2014-06-16T05:43:29.321Z,42.77
2014-06-16T05:44:34.325Z,42.88
2014-06-16T05:45:39.029Z,44.44
2014-06-16T05:46:43.716Z,45.65
2014-06-16T05:47:48.419Z,44.66
2014-06-16T05:48:53.122Z,43.33
2014-06-16T05:49:58.100Z,42.24
2014-06-16T05:51:02.795Z,42.05
2014-06-16T05:52:07.489Z,42.31
2014-06-16T05:53:11.480Z,41.97
2014-06-16T05:54:16.174Z,42.57
2014-06-16T05:55:20.870Z,43.98
2014-06-16T05:56:25.859Z,41.99
2014-06-16T05:57:30.549Z,42.03
2014-06-16T05:58:35.241Z,42.51
2014-06-16T05:59:39.931Z,42.49
2014-06-16T06:00:44.622Z,41.56
2014-06-16T06:01:49.311Z,41.42
2014-06-16T06:02:53.986Z,40.49
2014-06-16T06:03:58.973Z,39.61
2014-06-16T06:05:03.663Z,40.08
2014-06-16T06:06:08.665Z,41.48
2014-06-16T06:07:13.355Z,42.2
2014-06-16T06:08:18.043Z,41.54
2014-06-16T06:09:22.048Z,38.29
2014-06-16T06:10:26.737Z,35.46
2014-06-16T06:11:31.410Z,32.22
2014-06-16T06:12:36.101Z,29.18
2014-06-16T06:13:40.790Z,27.93
2014-06-16T06:14:45.463Z,26.91
2014-06-16T06:15:50.153Z,26.88
2014-06-16T06:16:54.842Z,27.25
2014-06-16T06:17:59.532Z,25.9
2014-06-16T06:19:04.220Z,24.45
2014-06-16T06:20:09.207Z,24.51
2014-06-16T06:21:13.897Z,23.92
2014-06-16T06:22:19.179Z,23.11
2014-06-16T06:23:23.871Z,23.07
2014-06-16T06:24:28.858Z,22.5
2014-06-16T06:25:33.547Z,23.21
2014-06-16T06:26:38.236Z,22.5
2014-06-16T06:27:43.223Z,22.06
2014-06-16T06:28:47.928Z,21.6
2014-06-16T06:29:52.617Z,21.88
2014-06-16T06:30:57.307Z,21.74
2014-06-16T06:32:02.012Z,21.98
2014-06-16T06:33:06.997Z,20.95
2014-06-16T06:34:11.984Z,21.34
2014-06-16T06:35:16.986Z,23.73
2014-06-16T06:36:21.678Z,26.27
2014-06-16T06:37:26.367Z,29.05
2014-06-16T06:38:31.056Z,31.18
2014-06-16T06:39:35.746Z,32.02
2014-06-16T06:40:40.732Z,32.22
2014-06-16T06:41:45.437Z,32.05
2014-06-16T06:42:50.127Z,33.95
2014-06-16T06:43:55.113Z,34.46
2014-06-16T06:45:00.099Z,33.93
2014-06-16T06:46:04.788Z,35.3
2014-06-16T06:47:09.477Z,35.05
2014-06-16T06:48:14.464Z,36.83
2014-06-16T06:49:19.153Z,38.01
2014-06-16T06:50:23.845Z,37.72
2014-06-16T06:51:28.534Z,38.45
2014-06-16T06:52:33.224Z,37.26
2014-06-16T06:53:37.913Z,36.75
2014-06-16T06:54:42.587Z,37.71
2014-06-16T06:55:47.277Z,37.31
2014-06-16T06:56:52.263Z,37.81
2014-06-16T06:57:56.952Z,39.34
2014-06-16T06:59:01.642Z,38.49
2014-06-16T07:00:06.332Z,38.1
2014-06-16T07:01:11.021Z,37.71
2014-06-16T07:02:15.711Z,37.02
2014-06-16T07:03:20.699Z,38.91
2014-06-16T07:04:25.387Z,38.29
2014-06-16T07:05:30.077Z,38.48
2014-06-16T07:06:34.751Z,38.15
2014-06-16T07:07:39.440Z,38.7
2014-06-16T07:08:44.130Z,38.32
2014-06-16T07:09:48.131Z,37.76
2014-06-16T07:10:52.821Z,37.63
2014-06-16T07:11:57.793Z,37.89
2014-06-16T07:13:02.483Z,37.29
2014-06-16T07:14:07.172Z,37.11
2014-06-16T07:15:11.877Z,37.25
2014-06-16T07:16:16.567Z,36.66
2014-06-16T07:17:21.256Z,36.12
2014-06-16T07:18:25.258Z,36.96
2014-06-16T07:19:30.245Z,39.32
2014-06-16T07:20:34.934Z,39.39
2014-06-16T07:21:39.624Z,41.11
2014-06-16T07:22:44.313Z,39.38
2014-06-16T07:23:49.299Z,38.59
2014-06-16T07:24:53.989Z,37.9
2014-06-16T07:25:58.678Z,37.93
2014-06-16T07:27:03.664Z,36.87
2014-06-16T07:28:08.354Z,37.45
2014-06-16T07:29:13.029Z,38.27
2014-06-16T07:30:18.015Z,40.96
2014-06-16T07:31:22.705Z,40.68
2014-06-16T07:32:27.395Z,38.35
2014-06-16T07:33:32.084Z,36.2
2014-06-16T07:34:36.773Z,35.6
2014-06-16T07:35:41.462Z,36.93
2014-06-16T07:36:46.448Z,35.68
2014-06-16T07:37:51.139Z,37.28
2014-06-16T07:38:56.125Z,35.81
2014-06-16T07:40:00.814Z,35.32
2014-06-16T07:41:05.504Z,34.77
2014-06-16T07:42:10.194Z,34.52
2014-06-16T07:43:14.882Z,34.67
2014-06-16T07:44:19.556Z,34.03
2014-06-16T07:45:24.248Z,34.23
2014-06-16T07:46:28.953Z,34.37
2014-06-16T07:47:33.642Z,34.24
2014-06-16T07:48:38.332Z,34.89
2014-06-16T07:49:43.021Z,36.05
2014-06-16T07:50:47.710Z,34.43
2014-06-16T07:51:52.400Z,34.75
2014-06-16T07:52:57.090Z,37.08
2014-06-16T07:54:01.778Z,36.85
2014-06-16T07:55:06.468Z,36.93
2014-06-16T07:56:11.157Z,37.16
2014-06-16T07:57:15.847Z,37.6
2014-06-16T07:58:20.536Z,37.31
2014-06-16T07:59:25.212Z,36.89
2014-06-16T08:00:29.902Z,36.04
2014-06-16T08:01:34.591Z,35.83
2014-06-16T08:02:39.578Z,36.53
2014-06-16T08:03:44.267Z,37.37
2014-06-16T08:04:48.956Z,36.15
2014-06-16T08:05:53.645Z,35.91
2014-06-16T08:06:58.335Z,36.33
2014-06-16T08:08:03.024Z,36.92
2014-06-16T08:09:07.714Z,36.84
2014-06-16T08:10:12.403Z,36.72
2014-06-16T08:11:17.093Z,36.39
2014-06-16T08:12:21.782Z,35.8
2014-06-16T08:13:26.458Z,36.35
2014-06-16T08:14:31.444Z,35.07
2014-06-16T08:15:36.134Z,34.86
2014-06-16T08:16:40.823Z,35.23
2014-06-16T08:17:45.512Z,35.3
2014-06-16T08:18:50.201Z,36.08
2014-06-16T08:19:54.891Z,35.66
2014-06-16T08:20:59.580Z,36.59
2014-06-16T08:22:04.270Z,37.12
2014-06-16T08:23:08.959Z,37.5
2014-06-16T08:24:13.649Z,38.16
2014-06-16T08:25:18.338Z,36.3
2014-06-16T08:26:23.327Z,35.41
2014-06-16T08:27:28.016Z,35.28
2014-06-16T08:28:32.017Z,34.96
2014-06-16T08:29:36.707Z,36.73
2014-06-16T08:30:41.693Z,36.3
2014-06-16T08:31:46.367Z,36.33
2014-06-16T08:32:51.056Z,36.01
2014-06-16T08:33:55.746Z,34.64
2014-06-16T08:35:00.732Z,35.36
2014-06-16T08:36:05.719Z,34.93
2014-06-16T08:37:10.408Z,35.23
2014-06-16T08:38:15.098Z,35.23
2014-06-16T08:39:19.787Z,37.63
2014-06-16T08:40:24.479Z,36.8
2014-06-16T08:41:28.778Z,36.16
2014-06-16T08:42:33.466Z,35.84
2014-06-16T08:43:38.156Z,34.32
2014-06-16T08:44:43.143Z,34.59
2014-06-16T08:45:47.831Z,34.81
2014-06-16T08:46:52.521Z,34.38
2014-06-16T08:47:57.210Z,33.58
2014-06-16T08:49:01.883Z,34.3
2014-06-16T08:50:06.575Z,34.25
2014-06-16T08:51:11.561Z,34.43
2014-06-16T08:52:16.251Z,35.29
2014-06-16T08:53:20.941Z,34.22
2014-06-16T08:54:25.630Z,34.84
2014-06-16T08:55:30.320Z,37.08
2014-06-16T08:56:35.009Z,35.37
2014-06-16T08:57:39.698Z,34.96
2014-06-16T08:58:44.388Z,34.89
2014-06-16T08:59:49.077Z,34.13
2014-06-16T09:00:53.767Z,33.74
2014-06-16T09:01:58.753Z,32.95
2014-06-16T09:03:03.739Z,34.27
2014-06-16T09:04:08.429Z,34.47
2014-06-16T09:05:13.117Z,33.6
2014-06-16T09:06:17.808Z,33.94
2014-06-16T09:07:22.497Z,34.74
2014-06-16T09:08:27.188Z,34.05
2014-06-16T09:09:31.877Z,33.49
2014-06-16T09:10:36.864Z,32.68
2014-06-16T09:11:41.850Z,32.41
2014-06-16T09:12:46.540Z,31.79
2014-06-16T09:13:51.229Z,33.62
2014-06-16T09:14:55.919Z,32.81
2014-06-16T09:16:00.905Z,31.63
2014-06-16T09:17:05.891Z,32.21
2014-06-16T09:18:10.597Z,31.74
2014-06-16T09:19:15.285Z,31.46
2014-06-16T09:20:19.975Z,31.05
2014-06-16T09:21:24.979Z,31.26
2014-06-16T09:22:29.965Z,31.99
2014-06-16T09:23:34.952Z,31.63
2014-06-16T09:24:39.641Z,32.48
2014-06-16T09:25:44.330Z,32.78
2014-06-16T09:26:49.020Z,32.3
2014-06-16T09:27:53.709Z,33.14
2014-06-16T09:28:58.399Z,31.69
2014-06-16T09:30:03.087Z,32.53
2014-06-16T09:31:07.778Z,31.44
2014-06-16T09:32:12.467Z,30.68
2014-06-16T09:33:17.157Z,32.69
2014-06-16T09:34:21.846Z,31.61
2014-06-16T09:35:26.834Z,31.6
2014-06-16T09:36:31.508Z,32.54
2014-06-16T09:37:36.213Z,31.83
2014-06-16T09:38:40.887Z,30.92
2014-06-16T09:39:45.576Z,30.74
2014-06-16T09:40:50.265Z,31.28
2014-06-16T09:41:54.955Z,30.8
2014-06-16T09:42:59.941Z,30.05
2014-06-16T09:44:04.928Z,30.35
2014-06-16T09:45:09.616Z,31.46
2014-06-16T09:46:14.603Z,31.04
2014-06-16T09:47:19.292Z,31.64
2014-06-16T09:48:23.984Z,31.99
2014-06-16T09:49:28.673Z,31.72
2014-06-16T09:50:33.363Z,30.77
2014-06-16T09:51:38.037Z,31.12
2014-06-16T09:52:42.726Z,31.13
2014-06-16T09:53:47.416Z,30.33
2014-06-16T09:54:52.105Z,30.41
2014-06-16T09:55:56.795Z,29.69
2014-06-16T09:57:00.797Z,29.24
2014-06-16T09:58:05.485Z,29.47
2014-06-16T09:59:10.175Z,28.53
2014-06-16T10:00:14.864Z,29.3
2014-06-16T10:01:19.554Z,28.84
2014-06-16T10:02:24.542Z,28.99
2014-06-16T10:03:29.231Z,31.07
2014-06-16T10:04:33.921Z,30.54
2014-06-16T10:05:37.923Z,30
2014-06-16T10:06:42.909Z,29.5
2014-06-16T10:07:47.895Z,30.7
2014-06-16T10:08:52.585Z,30.22
2014-06-16T10:09:57.572Z,31.88
2014-06-16T10:11:01.574Z,31.16
2014-06-16T10:12:06.262Z,30.76
2014-06-16T10:13:10.952Z,30.26
2014-06-16T10:14:15.641Z,30.08
2014-06-16T10:15:20.331Z,29.7
2014-06-16T10:16:25.022Z,29.82
2014-06-16T10:17:29.727Z,29.44
2014-06-16T10:18:34.417Z,30.22
2014-06-16T10:19:39.106Z,30.21
2014-06-16T10:20:43.796Z,30.6
2014-06-16T10:21:48.485Z,30.48
2014-06-16T10:22:53.159Z,31.02
2014-06-16T10:23:57.849Z,33.55
2014-06-16T10:25:02.553Z,33.23
2014-06-16T10:26:07.227Z,32.12
2014-06-16T10:27:11.916Z,32.29
2014-06-16T10:28:16.621Z,31.98
2014-06-16T10:29:21.311Z,31.99
2014-06-16T10:30:26.299Z,32.57
2014-06-16T10:31:30.989Z,33.29
2014-06-16T10:32:35.678Z,32.34
2014-06-16T10:33:40.368Z,32.08
2014-06-16T10:34:45.354Z,32.17
2014-06-16T10:35:50.043Z,32.56
2014-06-16T10:36:54.733Z,32.17
2014-06-16T10:37:59.438Z,30.94
2014-06-16T10:39:03.440Z,30.54
2014-06-16T10:40:08.130Z,29.98
2014-06-16T10:41:13.116Z,30.54
2014-06-16T10:42:17.805Z,29.27
2014-06-16T10:43:22.496Z,28.86
2014-06-16T10:44:27.184Z,28.64
2014-06-16T10:45:31.874Z,29.85
2014-06-16T10:46:36.563Z,29.37
2014-06-16T10:47:41.253Z,30.37
2014-06-16T10:48:45.943Z,29.01
2014-06-16T10:49:50.633Z,29.52
2014-06-16T10:50:55.338Z,28.49
2014-06-16T10:52:00.324Z,28.87
2014-06-16T10:53:05.045Z,28.64
2014-06-16T10:54:09.735Z,27.85
2014-06-16T10:55:14.424Z,28.55
2014-06-16T10:56:19.114Z,28.27
2014-06-16T10:57:23.804Z,28.81
2014-06-16T10:58:28.494Z,28.39
2014-06-16T10:59:33.183Z,28.66
2014-06-16T11:00:37.873Z,30.4
2014-06-16T11:01:42.859Z,30.27
2014-06-16T11:02:47.844Z,30.31
2014-06-16T11:03:52.550Z,29.69
2014-06-16T11:04:57.239Z,29.48
2014-06-16T11:06:01.929Z,30.67
2014-06-16T11:07:06.916Z,31.2
2014-06-16T11:08:11.606Z,29.97
2014-06-16T11:09:16.295Z,30.48
2014-06-16T11:10:21.282Z,30.03
2014-06-16T11:11:25.972Z,30.43
2014-06-16T11:12:30.660Z,30.23
2014-06-16T11:13:35.351Z,30.9
2014-06-16T11:14:40.039Z,30.54
2014-06-16T11:15:45.026Z,30.9
2014-06-16T11:16:49.715Z,29.96
2014-06-16T11:17:54.405Z,29.19
2014-06-16T11:18:59.094Z,29.42
2014-06-16T11:20:03.784Z,29.52
2014-06-16T11:21:08.472Z,29.96
2014-06-16T11:22:13.459Z,30.9
2014-06-16T11:23:18.446Z,30.54
2014-06-16T11:24:23.134Z,30.67
2014-06-16T11:25:28.124Z,29.22
2014-06-16T11:26:32.812Z,30.18
2014-06-16T11:27:37.502Z,29.49
2014-06-16T11:28:42.488Z,29.02
2014-06-16T11:29:47.178Z,29.64
2014-06-16T11:30:51.867Z,29.73
2014-06-16T11:31:56.557Z,29.42
2014-06-16T11:33:01.246Z,29.57
2014-06-16T11:34:05.936Z,29.72
2014-06-16T11:35:10.641Z,29.21
2014-06-16T11:36:15.329Z,30.19
2014-06-16T11:37:20.019Z,30.75
2014-06-16T11:38:25.006Z,30.23
2014-06-16T11:39:29.009Z,29.36
2014-06-16T11:40:33.699Z,29.89
2014-06-16T11:41:38.701Z,31.04
2014-06-16T11:42:43.390Z,29.98
2014-06-16T11:43:48.377Z,30.33
2014-06-16T11:44:53.066Z,30.69
2014-06-16T11:45:58.052Z,30.83
2014-06-16T11:47:02.742Z,30.31
2014-06-16T11:48:07.431Z,29.97
2014-06-16T11:49:12.121Z,28.76
2014-06-16T11:50:16.826Z,29.59
2014-06-16T11:51:21.811Z,30.26
2014-06-16T11:52:26.800Z,29.01
2014-06-16T11:53:31.489Z,28.88
2014-06-16T11:54:36.180Z,29.21
2014-06-16T11:55:40.868Z,30.16
2014-06-16T11:56:45.542Z,30.3
2014-06-16T11:57:50.232Z,29.59
2014-06-16T11:58:54.921Z,29.85
2014-06-16T11:59:59.611Z,29.41
2014-06-16T12:01:04.316Z,29.46
2014-06-16T12:02:08.318Z,29.81
2014-06-16T12:03:13.006Z,29.15
2014-06-16T12:04:17.696Z,30.37
2014-06-16T12:05:22.370Z,30.06
2014-06-16T12:06:27.061Z,29.06
2014-06-16T12:07:31.766Z,30.81
2014-06-16T12:08:36.456Z,30.3
2014-06-16T12:09:41.145Z,29.96
2014-06-16T12:10:45.835Z,29.76
2014-06-16T12:11:50.821Z,30.83
2014-06-16T12:12:55.511Z,31.89
2014-06-16T12:14:00.199Z,31.48
2014-06-16T12:15:05.186Z,31.04
2014-06-16T12:16:09.876Z,30.41
2014-06-16T12:17:14.846Z,30.54
2014-06-16T12:18:19.551Z,31.39
2014-06-16T12:19:24.241Z,31.02
2014-06-16T12:20:28.932Z,31.27
2014-06-16T12:21:33.621Z,30.01
2014-06-16T12:22:38.608Z,29.7
2014-06-16T12:23:43.297Z,29.45
2014-06-16T12:24:47.987Z,29.39
2014-06-16T12:25:52.677Z,29.44
2014-06-16T12:26:57.366Z,30.58
2014-06-16T12:28:02.353Z,31.28
2014-06-16T12:29:07.043Z,29.92
2014-06-16T12:30:11.732Z,29.6
2014-06-16T12:31:16.422Z,30.63
2014-06-16T12:32:20.408Z,30.41
2014-06-16T12:33:25.098Z,31.12
2014-06-16T12:34:29.787Z,31.48
2014-06-16T12:35:34.477Z,31.2
2014-06-16T12:36:39.165Z,31.06
2014-06-16T12:37:44.152Z,31.54
2014-06-16T12:38:48.842Z,30.75
2014-06-16T12:39:53.530Z,31.14
2014-06-16T12:40:58.517Z,29.87
2014-06-16T12:42:03.207Z,29.8
2014-06-16T12:43:08.193Z,30.57
2014-06-16T12:44:12.882Z,29.95
2014-06-16T12:45:17.572Z,29.07
2014-06-16T12:46:21.574Z,28.47
2014-06-16T12:47:26.263Z,29.67
2014-06-16T12:48:31.252Z,29.47
2014-06-16T12:49:35.941Z,29.26
2014-06-16T12:50:40.631Z,29.38
2014-06-16T12:51:45.320Z,29.67
2014-06-16T12:52:50.024Z,29.35
2014-06-16T12:53:54.745Z,29.8
2014-06-16T12:54:59.747Z,30.35
2014-06-16T12:56:04.436Z,28.51
2014-06-16T12:57:09.110Z,29.12
2014-06-16T12:58:14.112Z,28.49
2014-06-16T12:59:18.802Z,28
2014-06-16T13:00:23.476Z,28.16
2014-06-16T13:01:28.464Z,28.8
2014-06-16T13:02:33.450Z,28.09
2014-06-16T13:03:38.140Z,28.33
2014-06-16T13:04:43.126Z,27.6
2014-06-16T13:05:47.816Z,27.4
2014-06-16T13:06:52.504Z,27.49
2014-06-16T13:07:57.194Z,27.55
2014-06-16T13:09:02.180Z,27.57
2014-06-16T13:10:06.885Z,27.84
2014-06-16T13:11:11.575Z,28.08
2014-06-16T13:12:16.264Z,27.26
2014-06-16T13:13:20.953Z,28.21
2014-06-16T13:14:25.643Z,29.28
2014-06-16T13:15:30.632Z,29.8
2014-06-16T13:16:35.617Z,29.33
2014-06-16T13:17:40.307Z,29.11
2014-06-16T13:18:44.997Z,28.89
2014-06-16T13:19:49.686Z,29.11
2014-06-16T13:20:54.376Z,28.33
2014-06-16T13:21:59.065Z,28.87
2014-06-16T13:23:03.754Z,29.27
2014-06-16T13:24:08.444Z,28.72
2014-06-16T13:25:13.133Z,29.77
2014-06-16T13:26:17.823Z,29.29
2014-06-16T13:27:22.512Z,30.36
2014-06-16T13:28:27.201Z,29.74
2014-06-16T13:29:31.893Z,29.39
2014-06-16T13:30:36.879Z,29.2
2014-06-16T13:31:41.569Z,29.5
2014-06-16T13:32:46.555Z,29.79
2014-06-16T13:33:51.245Z,29.2
2014-06-16T13:34:55.934Z,29.01
2014-06-16T13:36:00.624Z,29.2
2014-06-16T13:37:05.313Z,29.89
2014-06-16T13:38:10.003Z,30.03
2014-06-16T13:39:14.989Z,29.89
2014-06-16T13:40:19.679Z,30.14
2014-06-16T13:41:24.369Z,31.16
2014-06-16T13:42:29.355Z,31.87
2014-06-16T13:43:33.358Z,30.91
2014-06-16T13:44:38.046Z,31.56
2014-06-16T13:45:42.736Z,30.64
2014-06-16T13:46:47.426Z,30.49
2014-06-16T13:47:52.115Z,31.35
2014-06-16T13:48:56.804Z,31.38
2014-06-16T13:50:01.790Z,30.41
2014-06-16T13:51:06.777Z,30.35
2014-06-16T13:52:11.466Z,30.46
2014-06-16T13:53:16.453Z,29.88
2014-06-16T13:54:21.142Z,29.75
2014-06-16T13:55:26.129Z,29.93
2014-06-16T13:56:30.819Z,29.43